sensor_id;sensor_type;location;lat;lon;timestamp;P1;durP1;ratioP1;P2;durP2;ratioP2
3427;SDS011;1727;42.624;23.406;2023-05-10T00:00:29;7.63;;;6.87;;
3427;SDS011;1727;42.624;23.406;2023-05-10T00:02:56;6.30;;;5.73;;
3427;SDS011;1727;42.624;23.406;2023-05-10T00:05:23;6.27;;;5.77;;
3427;SDS011;1727;42.624;23.406;2023-05-10T00:07:50;7.17;;;6.47;;
3427;SDS011;1727;42.624;23.406;2023-05-10T00:10:18;6.60;;;6.00;;
3427;SDS011;1727;42.624;23.406;2023-05-10T00:12:44;7.63;;;6.27;;
3427;SDS011;1727;42.624;23.406;2023-05-10T00:15:11;7.47;;;6.77;;
3427;SDS011;1727;42.624;23.406;2023-05-10T00:17:38;8.60;;;7.80;;
3427;SDS011;1727;42.624;23.406;2023-05-10T00:20:05;8.50;;;7.70;;
3427;SDS011;1727;42.624;23.406;2023-05-10T00:22:32;9.03;;;8.13;;
3427;SDS011;1727;42.624;23.406;2023-05-10T00:25:02;9.00;;;8.10;;
3427;SDS011;1727;42.624;23.406;2023-05-10T00:27:30;9.57;;;8.57;;
3427;SDS011;1727;42.624;23.406;2023-05-10T00:29:57;16.73;;;8.83;;
3427;SDS011;1727;42.624;23.406;2023-05-10T00:32:24;9.03;;;8.13;;
3427;SDS011;1727;42.624;23.406;2023-05-10T00:34:53;9.67;;;8.77;;
3427;SDS011;1727;42.624;23.406;2023-05-10T00:37:20;8.63;;;7.80;;
3427;SDS011;1727;42.624;23.406;2023-05-10T00:39:47;11.33;;;8.57;;
3427;SDS011;1727;42.624;23.406;2023-05-10T00:42:13;10.13;;;9.17;;
3427;SDS011;1727;42.624;23.406;2023-05-10T00:44:42;12.33;;;10.00;;
3427;SDS011;1727;42.624;23.406;2023-05-10T00:47:08;10.67;;;9.60;;
3427;SDS011;1727;42.624;23.406;2023-05-10T00:49:36;10.73;;;9.40;;
3427;SDS011;1727;42.624;23.406;2023-05-10T00:52:03;10.97;;;9.87;;
3427;SDS011;1727;42.624;23.406;2023-05-10T00:54:31;11.63;;;9.80;;
3427;SDS011;1727;42.624;23.406;2023-05-10T00:56:58;9.43;;;8.50;;
3427;SDS011;1727;42.624;23.406;2023-05-10T00:59:24;9.57;;;8.53;;
3427;SDS011;1727;42.624;23.406;2023-05-10T01:01:53;10.73;;;8.60;;
3427;SDS011;1727;42.624;23.406;2023-05-10T01:04:20;10.30;;;9.20;;
3427;SDS011;1727;42.624;23.406;2023-05-10T01:06:51;11.20;;;8.80;;
3427;SDS011;1727;42.624;23.406;2023-05-10T01:09:17;10.50;;;8.17;;
3427;SDS011;1727;42.624;23.406;2023-05-10T01:11:45;8.97;;;8.07;;
3427;SDS011;1727;42.624;23.406;2023-05-10T01:14:12;11.10;;;8.70;;
3427;SDS011;1727;42.624;23.406;2023-05-10T01:16:39;10.20;;;8.90;;
3427;SDS011;1727;42.624;23.406;2023-05-10T01:19:10;11.63;;;9.07;;
3427;SDS011;1727;42.624;23.406;2023-05-10T01:21:44;8.87;;;8.03;;
3427;SDS011;1727;42.624;23.406;2023-05-10T01:27:35;10.10;;;8.47;;
3427;SDS011;1727;42.624;23.406;2023-05-10T01:30:22;8.00;;;7.30;;
3427;SDS011;1727;42.624;23.406;2023-05-10T01:33:19;8.83;;;8.03;;
3427;SDS011;1727;42.624;23.406;2023-05-10T01:35:51;15.87;;;8.17;;
3427;SDS011;1727;42.624;23.406;2023-05-10T01:38:42;7.90;;;7.20;;
3427;SDS011;1727;42.624;23.406;2023-05-10T01:41:17;7.90;;;5.60;;
3427;SDS011;1727;42.624;23.406;2023-05-10T01:43:48;8.67;;;6.90;;
3427;SDS011;1727;42.624;23.406;2023-05-10T01:46:21;6.70;;;5.77;;
3427;SDS011;1727;42.624;23.406;2023-05-10T01:48:55;6.40;;;5.90;;
3427;SDS011;1727;42.624;23.406;2023-05-10T01:51:25;7.93;;;5.97;;
3427;SDS011;1727;42.624;23.406;2023-05-10T01:53:58;6.40;;;5.80;;
3427;SDS011;1727;42.624;23.406;2023-05-10T01:56:28;5.30;;;4.87;;
3427;SDS011;1727;42.624;23.406;2023-05-10T01:58:58;7.13;;;6.43;;
3427;SDS011;1727;42.624;23.406;2023-05-10T02:01:27;6.17;;;5.67;;
3427;SDS011;1727;42.624;23.406;2023-05-10T02:03:55;8.30;;;6.13;;
3427;SDS011;1727;42.624;23.406;2023-05-10T02:06:24;7.20;;;6.50;;
3427;SDS011;1727;42.624;23.406;2023-05-10T02:08:53;7.40;;;6.70;;
3427;SDS011;1727;42.624;23.406;2023-05-10T02:11:20;6.20;;;5.70;;
3427;SDS011;1727;42.624;23.406;2023-05-10T02:13:48;8.73;;;6.10;;
3427;SDS011;1727;42.624;23.406;2023-05-10T02:16:16;9.77;;;5.83;;
3427;SDS011;1727;42.624;23.406;2023-05-10T02:18:47;9.30;;;6.07;;
3427;SDS011;1727;42.624;23.406;2023-05-10T02:21:17;6.63;;;5.30;;
3427;SDS011;1727;42.624;23.406;2023-05-10T02:23:46;10.27;;;6.07;;
3427;SDS011;1727;42.624;23.406;2023-05-10T02:26:16;9.73;;;7.23;;
3427;SDS011;1727;42.624;23.406;2023-05-10T02:28:47;5.67;;;5.17;;
3427;SDS011;1727;42.624;23.406;2023-05-10T02:31:15;8.23;;;6.47;;
3427;SDS011;1727;42.624;23.406;2023-05-10T02:33:43;6.53;;;5.90;;
3427;SDS011;1727;42.624;23.406;2023-05-10T02:36:12;6.63;;;5.93;;
3427;SDS011;1727;42.624;23.406;2023-05-10T02:38:41;6.53;;;5.90;;
3427;SDS011;1727;42.624;23.406;2023-05-10T02:41:09;6.83;;;5.10;;
3427;SDS011;1727;42.624;23.406;2023-05-10T02:43:37;6.27;;;5.70;;
3427;SDS011;1727;42.624;23.406;2023-05-10T02:46:06;6.50;;;5.90;;
3427;SDS011;1727;42.624;23.406;2023-05-10T02:48:32;6.90;;;6.20;;
3427;SDS011;1727;42.624;23.406;2023-05-10T02:51:00;6.07;;;5.57;;
3427;SDS011;1727;42.624;23.406;2023-05-10T02:53:33;6.27;;;5.20;;
3427;SDS011;1727;42.624;23.406;2023-05-10T02:56:07;8.07;;;5.67;;
3427;SDS011;1727;42.624;23.406;2023-05-10T02:58:39;6.77;;;5.97;;
3427;SDS011;1727;42.624;23.406;2023-05-10T03:01:06;8.90;;;6.73;;
3427;SDS011;1727;42.624;23.406;2023-05-10T03:03:33;6.27;;;5.63;;
3427;SDS011;1727;42.624;23.406;2023-05-10T03:06:00;10.37;;;6.20;;
3427;SDS011;1727;42.624;23.406;2023-05-10T03:08:27;7.00;;;5.60;;
3427;SDS011;1727;42.624;23.406;2023-05-10T03:10:57;7.00;;;6.40;;
3427;SDS011;1727;42.624;23.406;2023-05-10T03:13:39;6.57;;;4.93;;
3427;SDS011;1727;42.624;23.406;2023-05-10T03:16:32;9.10;;;6.13;;
3427;SDS011;1727;42.624;23.406;2023-05-10T03:19:09;6.37;;;5.73;;
3427;SDS011;1727;42.624;23.406;2023-05-10T03:21:41;7.03;;;6.40;;
3427;SDS011;1727;42.624;23.406;2023-05-10T03:24:13;7.87;;;6.53;;
3427;SDS011;1727;42.624;23.406;2023-05-10T03:26:41;5.90;;;5.33;;
3427;SDS011;1727;42.624;23.406;2023-05-10T03:29:12;7.00;;;5.97;;
3427;SDS011;1727;42.624;23.406;2023-05-10T03:31:40;7.00;;;6.30;;
3427;SDS011;1727;42.624;23.406;2023-05-10T03:34:10;8.07;;;6.03;;
3427;SDS011;1727;42.624;23.406;2023-05-10T03:36:39;11.20;;;5.50;;
3427;SDS011;1727;42.624;23.406;2023-05-10T03:39:05;6.63;;;6.00;;
3427;SDS011;1727;42.624;23.406;2023-05-10T03:41:32;9.23;;;5.80;;
3427;SDS011;1727;42.624;23.406;2023-05-10T03:43:59;7.23;;;6.17;;
3427;SDS011;1727;42.624;23.406;2023-05-10T03:46:27;6.90;;;6.20;;
3427;SDS011;1727;42.624;23.406;2023-05-10T03:48:54;7.30;;;5.77;;
3427;SDS011;1727;42.624;23.406;2023-05-10T03:51:21;6.50;;;5.90;;
3427;SDS011;1727;42.624;23.406;2023-05-10T03:53:48;8.57;;;6.40;;
3427;SDS011;1727;42.624;23.406;2023-05-10T03:56:15;7.37;;;6.10;;
3427;SDS011;1727;42.624;23.406;2023-05-10T03:58:41;7.10;;;6.40;;
3427;SDS011;1727;42.624;23.406;2023-05-10T04:01:08;6.73;;;6.10;;
3427;SDS011;1727;42.624;23.406;2023-05-10T04:03:36;9.60;;;5.63;;
3427;SDS011;1727;42.624;23.406;2023-05-10T04:06:04;8.20;;;5.60;;
3427;SDS011;1727;42.624;23.406;2023-05-10T04:08:32;6.70;;;6.10;;
3427;SDS011;1727;42.624;23.406;2023-05-10T04:11:05;6.27;;;5.67;;
3427;SDS011;1727;42.624;23.406;2023-05-10T04:13:32;6.50;;;5.80;;
3427;SDS011;1727;42.624;23.406;2023-05-10T04:15:59;6.47;;;5.77;;
3427;SDS011;1727;42.624;23.406;2023-05-10T04:18:26;7.93;;;5.73;;
3427;SDS011;1727;42.624;23.406;2023-05-10T04:20:54;6.33;;;5.73;;
3427;SDS011;1727;42.624;23.406;2023-05-10T04:23:21;9.03;;;5.87;;
3427;SDS011;1727;42.624;23.406;2023-05-10T04:25:47;5.33;;;4.90;;
3427;SDS011;1727;42.624;23.406;2023-05-10T04:28:14;6.50;;;5.90;;
3427;SDS011;1727;42.624;23.406;2023-05-10T04:30:41;6.63;;;5.87;;
3427;SDS011;1727;42.624;23.406;2023-05-10T04:39:59;6.50;;;5.43;;
3427;SDS011;1727;42.624;23.406;2023-05-10T04:42:26;8.87;;;6.00;;
3427;SDS011;1727;42.624;23.406;2023-05-10T04:44:52;6.40;;;5.80;;
3427;SDS011;1727;42.624;23.406;2023-05-10T04:47:19;6.30;;;5.70;;
3427;SDS011;1727;42.624;23.406;2023-05-10T04:49:46;8.90;;;6.60;;
3427;SDS011;1727;42.624;23.406;2023-05-10T04:52:13;7.60;;;6.67;;
3427;SDS011;1727;42.624;23.406;2023-05-10T04:54:42;8.47;;;7.13;;
3427;SDS011;1727;42.624;23.406;2023-05-10T04:57:10;8.37;;;6.53;;
3427;SDS011;1727;42.624;23.406;2023-05-10T04:59:37;11.70;;;6.80;;
3427;SDS011;1727;42.624;23.406;2023-05-10T05:02:04;11.13;;;7.33;;
3427;SDS011;1727;42.624;23.406;2023-05-10T05:04:31;6.93;;;6.30;;
3427;SDS011;1727;42.624;23.406;2023-05-10T05:06:58;6.90;;;6.00;;
3427;SDS011;1727;42.624;23.406;2023-05-10T05:09:25;8.30;;;7.50;;
3427;SDS011;1727;42.624;23.406;2023-05-10T05:11:51;15.00;;;7.10;;
3427;SDS011;1727;42.624;23.406;2023-05-10T05:14:20;10.20;;;8.17;;
3427;SDS011;1727;42.624;23.406;2023-05-10T05:16:46;10.07;;;7.73;;
3427;SDS011;1727;42.624;23.406;2023-05-10T05:19:13;7.67;;;6.73;;
3427;SDS011;1727;42.624;23.406;2023-05-10T05:21:40;7.93;;;7.13;;
3427;SDS011;1727;42.624;23.406;2023-05-10T05:24:07;8.17;;;6.90;;
3427;SDS011;1727;42.624;23.406;2023-05-10T05:26:35;11.10;;;6.53;;
3427;SDS011;1727;42.624;23.406;2023-05-10T05:29:02;7.93;;;7.13;;
3427;SDS011;1727;42.624;23.406;2023-05-10T05:31:30;8.50;;;7.00;;
3427;SDS011;1727;42.624;23.406;2023-05-10T05:33:57;9.67;;;7.73;;
3427;SDS011;1727;42.624;23.406;2023-05-10T05:36:23;10.37;;;8.00;;
3427;SDS011;1727;42.624;23.406;2023-05-10T05:38:50;10.10;;;8.87;;
3427;SDS011;1727;42.624;23.406;2023-05-10T05:41:17;9.77;;;7.40;;
3427;SDS011;1727;42.624;23.406;2023-05-10T05:43:44;9.47;;;8.47;;
3427;SDS011;1727;42.624;23.406;2023-05-10T05:46:10;10.37;;;8.80;;
3427;SDS011;1727;42.624;23.406;2023-05-10T05:48:39;10.03;;;8.43;;
3427;SDS011;1727;42.624;23.406;2023-05-10T05:51:05;10.73;;;8.40;;
3427;SDS011;1727;42.624;23.406;2023-05-10T05:53:32;10.33;;;8.73;;
3427;SDS011;1727;42.624;23.406;2023-05-10T05:55:59;12.33;;;8.57;;
3427;SDS011;1727;42.624;23.406;2023-05-10T05:58:26;11.00;;;9.20;;
3427;SDS011;1727;42.624;23.406;2023-05-10T06:00:53;12.00;;;9.43;;
3427;SDS011;1727;42.624;23.406;2023-05-10T06:03:20;10.10;;;8.30;;
3427;SDS011;1727;42.624;23.406;2023-05-10T06:05:48;10.07;;;9.07;;
3427;SDS011;1727;42.624;23.406;2023-05-10T06:08:15;13.80;;;10.57;;
3427;SDS011;1727;42.624;23.406;2023-05-10T06:10:41;11.60;;;10.13;;
3427;SDS011;1727;42.624;23.406;2023-05-10T06:13:09;13.93;;;11.30;;
3427;SDS011;1727;42.624;23.406;2023-05-10T06:15:36;13.47;;;9.90;;
3427;SDS011;1727;42.624;23.406;2023-05-10T06:18:03;11.00;;;9.50;;
3427;SDS011;1727;42.624;23.406;2023-05-10T06:20:29;14.73;;;11.70;;
3427;SDS011;1727;42.624;23.406;2023-05-10T06:22:58;16.13;;;12.20;;
3427;SDS011;1727;42.624;23.406;2023-05-10T06:25:25;12.80;;;10.03;;
3427;SDS011;1727;42.624;23.406;2023-05-10T06:27:52;13.17;;;10.40;;
3427;SDS011;1727;42.624;23.406;2023-05-10T06:30:22;11.87;;;9.20;;
3427;SDS011;1727;42.624;23.406;2023-05-10T06:32:52;12.50;;;10.27;;
3427;SDS011;1727;42.624;23.406;2023-05-10T06:35:19;12.80;;;9.70;;
3427;SDS011;1727;42.624;23.406;2023-05-10T06:37:46;12.77;;;10.53;;
3427;SDS011;1727;42.624;23.406;2023-05-10T06:40:14;10.50;;;9.23;;
3427;SDS011;1727;42.624;23.406;2023-05-10T06:42:41;10.43;;;8.37;;
3427;SDS011;1727;42.624;23.406;2023-05-10T06:45:10;13.20;;;9.93;;
3427;SDS011;1727;42.624;23.406;2023-05-10T06:47:37;12.27;;;10.00;;
3427;SDS011;1727;42.624;23.406;2023-05-10T06:50:04;10.00;;;8.67;;
3427;SDS011;1727;42.624;23.406;2023-05-10T06:52:32;10.30;;;9.10;;
3427;SDS011;1727;42.624;23.406;2023-05-10T06:54:59;9.43;;;7.20;;
3427;SDS011;1727;42.624;23.406;2023-05-10T06:57:28;13.23;;;9.83;;
3427;SDS011;1727;42.624;23.406;2023-05-10T06:59:56;8.73;;;7.87;;
3427;SDS011;1727;42.624;23.406;2023-05-10T07:02:22;9.50;;;8.50;;
3427;SDS011;1727;42.624;23.406;2023-05-10T07:04:49;10.87;;;9.17;;
3427;SDS011;1727;42.624;23.406;2023-05-10T07:07:16;12.90;;;9.03;;
3427;SDS011;1727;42.624;23.406;2023-05-10T07:09:44;11.03;;;9.90;;
3427;SDS011;1727;42.624;23.406;2023-05-10T07:12:11;11.70;;;9.60;;
3427;SDS011;1727;42.624;23.406;2023-05-10T07:14:39;11.90;;;8.47;;
3427;SDS011;1727;42.624;23.406;2023-05-10T07:17:13;16.40;;;9.27;;
3427;SDS011;1727;42.624;23.406;2023-05-10T07:19:40;10.30;;;8.63;;
3427;SDS011;1727;42.624;23.406;2023-05-10T07:22:07;10.43;;;9.10;;
3427;SDS011;1727;42.624;23.406;2023-05-10T07:24:34;14.47;;;10.30;;
3427;SDS011;1727;42.624;23.406;2023-05-10T07:27:01;14.50;;;10.37;;
3427;SDS011;1727;42.624;23.406;2023-05-10T07:29:29;13.90;;;11.43;;
3427;SDS011;1727;42.624;23.406;2023-05-10T07:31:57;17.10;;;10.67;;
3427;SDS011;1727;42.624;23.406;2023-05-10T07:34:24;14.83;;;11.70;;
3427;SDS011;1727;42.624;23.406;2023-05-10T07:36:51;14.70;;;10.90;;
3427;SDS011;1727;42.624;23.406;2023-05-10T07:39:18;19.00;;;12.97;;
3427;SDS011;1727;42.624;23.406;2023-05-10T07:41:45;12.63;;;11.33;;
3427;SDS011;1727;42.624;23.406;2023-05-10T07:44:12;13.67;;;10.10;;
3427;SDS011;1727;42.624;23.406;2023-05-10T07:46:39;13.20;;;9.57;;
3427;SDS011;1727;42.624;23.406;2023-05-10T07:49:07;17.37;;;10.30;;
3427;SDS011;1727;42.624;23.406;2023-05-10T07:51:34;16.37;;;14.70;;
3427;SDS011;1727;42.624;23.406;2023-05-10T07:54:01;15.40;;;10.90;;
3427;SDS011;1727;42.624;23.406;2023-05-10T07:56:29;14.87;;;11.37;;
3427;SDS011;1727;42.624;23.406;2023-05-10T07:58:58;12.83;;;11.33;;
3427;SDS011;1727;42.624;23.406;2023-05-10T08:01:25;12.27;;;9.37;;
3427;SDS011;1727;42.624;23.406;2023-05-10T08:03:53;22.07;;;13.13;;
3427;SDS011;1727;42.624;23.406;2023-05-10T08:06:21;18.27;;;11.60;;
3427;SDS011;1727;42.624;23.406;2023-05-10T08:08:48;22.83;;;14.13;;
3427;SDS011;1727;42.624;23.406;2023-05-10T08:11:15;21.53;;;13.63;;
3427;SDS011;1727;42.624;23.406;2023-05-10T08:13:42;18.70;;;12.60;;
3427;SDS011;1727;42.624;23.406;2023-05-10T08:16:09;20.57;;;13.63;;
3427;SDS011;1727;42.624;23.406;2023-05-10T08:18:36;26.27;;;14.93;;
3427;SDS011;1727;42.624;23.406;2023-05-10T08:21:04;20.23;;;13.33;;
3427;SDS011;1727;42.624;23.406;2023-05-10T08:23:32;14.37;;;11.40;;
3427;SDS011;1727;42.624;23.406;2023-05-10T08:25:59;17.10;;;11.47;;
3427;SDS011;1727;42.624;23.406;2023-05-10T08:28:26;13.00;;;10.30;;
3427;SDS011;1727;42.624;23.406;2023-05-10T08:30:52;10.97;;;9.80;;
3427;SDS011;1727;42.624;23.406;2023-05-10T08:33:19;16.90;;;12.73;;
3427;SDS011;1727;42.624;23.406;2023-05-10T08:35:46;13.77;;;12.33;;
3427;SDS011;1727;42.624;23.406;2023-05-10T08:38:13;14.63;;;11.40;;
3427;SDS011;1727;42.624;23.406;2023-05-10T08:40:41;14.10;;;9.77;;
3427;SDS011;1727;42.624;23.406;2023-05-10T08:43:10;15.17;;;10.50;;
3427;SDS011;1727;42.624;23.406;2023-05-10T08:45:40;11.50;;;9.90;;
3427;SDS011;1727;42.624;23.406;2023-05-10T08:48:09;13.13;;;10.67;;
3427;SDS011;1727;42.624;23.406;2023-05-10T08:50:37;11.10;;;10.00;;
3427;SDS011;1727;42.624;23.406;2023-05-10T08:53:06;11.43;;;10.20;;
3427;SDS011;1727;42.624;23.406;2023-05-10T08:55:36;10.77;;;9.60;;
3427;SDS011;1727;42.624;23.406;2023-05-10T08:58:05;13.53;;;10.70;;
3427;SDS011;1727;42.624;23.406;2023-05-10T09:00:33;14.00;;;11.60;;
3427;SDS011;1727;42.624;23.406;2023-05-10T09:03:00;12.53;;;11.23;;
3427;SDS011;1727;42.624;23.406;2023-05-10T09:05:29;18.20;;;12.93;;
3427;SDS011;1727;42.624;23.406;2023-05-10T09:07:55;17.50;;;14.57;;
3427;SDS011;1727;42.624;23.406;2023-05-10T09:10:24;22.63;;;13.23;;
3427;SDS011;1727;42.624;23.406;2023-05-10T09:12:52;20.50;;;13.33;;
3427;SDS011;1727;42.624;23.406;2023-05-10T09:15:21;18.70;;;14.50;;
3427;SDS011;1727;42.624;23.406;2023-05-10T09:17:48;18.37;;;14.80;;
3427;SDS011;1727;42.624;23.406;2023-05-10T09:20:15;19.10;;;14.30;;
3427;SDS011;1727;42.624;23.406;2023-05-10T09:22:43;16.00;;;13.83;;
3427;SDS011;1727;42.624;23.406;2023-05-10T09:25:11;17.00;;;13.47;;
3427;SDS011;1727;42.624;23.406;2023-05-10T09:27:39;14.47;;;12.87;;
3427;SDS011;1727;42.624;23.406;2023-05-10T09:30:06;14.87;;;12.33;;
3427;SDS011;1727;42.624;23.406;2023-05-10T09:32:39;12.23;;;11.03;;
3427;SDS011;1727;42.624;23.406;2023-05-10T09:35:08;16.23;;;11.30;;
3427;SDS011;1727;42.624;23.406;2023-05-10T09:37:35;13.70;;;11.50;;
3427;SDS011;1727;42.624;23.406;2023-05-10T09:40:05;14.00;;;12.47;;
3427;SDS011;1727;42.624;23.406;2023-05-10T09:42:33;14.10;;;12.30;;
3427;SDS011;1727;42.624;23.406;2023-05-10T09:45:01;18.67;;;13.70;;
3427;SDS011;1727;42.624;23.406;2023-05-10T09:47:31;23.03;;;15.50;;
3427;SDS011;1727;42.624;23.406;2023-05-10T09:49:59;13.20;;;11.47;;
3427;SDS011;1727;42.624;23.406;2023-05-10T09:52:29;12.83;;;11.70;;
3427;SDS011;1727;42.624;23.406;2023-05-10T09:54:57;19.00;;;13.83;;
3427;SDS011;1727;42.624;23.406;2023-05-10T09:57:24;16.23;;;13.03;;
3427;SDS011;1727;42.624;23.406;2023-05-10T09:59:52;12.97;;;11.23;;
3427;SDS011;1727;42.624;23.406;2023-05-10T10:02:19;17.27;;;10.90;;
3427;SDS011;1727;42.624;23.406;2023-05-10T10:04:48;13.13;;;11.60;;
3427;SDS011;1727;42.624;23.406;2023-05-10T10:07:17;11.20;;;10.00;;
3427;SDS011;1727;42.624;23.406;2023-05-10T10:09:49;16.87;;;11.93;;
3427;SDS011;1727;42.624;23.406;2023-05-10T10:12:16;13.07;;;11.23;;
3427;SDS011;1727;42.624;23.406;2023-05-10T10:14:44;14.80;;;10.20;;
3427;SDS011;1727;42.624;23.406;2023-05-10T10:17:12;17.13;;;13.00;;
3427;SDS011;1727;42.624;23.406;2023-05-10T10:19:39;17.20;;;11.13;;
3427;SDS011;1727;42.624;23.406;2023-05-10T10:22:07;16.53;;;11.23;;
3427;SDS011;1727;42.624;23.406;2023-05-10T10:24:37;12.00;;;10.10;;
3427;SDS011;1727;42.624;23.406;2023-05-10T10:27:09;14.77;;;10.60;;
3427;SDS011;1727;42.624;23.406;2023-05-10T10:29:47;10.93;;;9.83;;
3427;SDS011;1727;42.624;23.406;2023-05-10T10:32:25;12.33;;;10.50;;
3427;SDS011;1727;42.624;23.406;2023-05-10T10:34:56;12.53;;;8.83;;
3427;SDS011;1727;42.624;23.406;2023-05-10T10:37:23;9.27;;;8.30;;
3427;SDS011;1727;42.624;23.406;2023-05-10T10:42:51;9.07;;;7.67;;
3427;SDS011;1727;42.624;23.406;2023-05-10T10:45:19;12.20;;;8.83;;
3427;SDS011;1727;42.624;23.406;2023-05-10T10:47:47;14.07;;;7.20;;
3427;SDS011;1727;42.624;23.406;2023-05-10T10:50:14;11.77;;;9.10;;
3427;SDS011;1727;42.624;23.406;2023-05-10T10:52:42;8.67;;;7.83;;
3427;SDS011;1727;42.624;23.406;2023-05-10T10:55:10;9.87;;;8.70;;
3427;SDS011;1727;42.624;23.406;2023-05-10T10:57:46;15.83;;;8.53;;
3427;SDS011;1727;42.624;23.406;2023-05-10T11:00:23;11.27;;;9.57;;
3427;SDS011;1727;42.624;23.406;2023-05-10T11:02:53;10.97;;;8.97;;
3427;SDS011;1727;42.624;23.406;2023-05-10T11:05:22;10.60;;;9.13;;
3427;SDS011;1727;42.624;23.406;2023-05-10T11:08:09;16.27;;;9.47;;
3427;SDS011;1727;42.624;23.406;2023-05-10T11:10:37;11.07;;;9.70;;
3427;SDS011;1727;42.624;23.406;2023-05-10T11:13:07;13.13;;;9.80;;
3427;SDS011;1727;42.624;23.406;2023-05-10T11:15:35;11.50;;;9.27;;
3427;SDS011;1727;42.624;23.406;2023-05-10T11:20:49;10.53;;;9.37;;
3427;SDS011;1727;42.624;23.406;2023-05-10T11:23:17;15.43;;;10.20;;
3427;SDS011;1727;42.624;23.406;2023-05-10T11:25:45;15.93;;;9.90;;
3427;SDS011;1727;42.624;23.406;2023-05-10T11:28:13;10.20;;;8.57;;
3427;SDS011;1727;42.624;23.406;2023-05-10T11:30:41;10.10;;;8.80;;
3427;SDS011;1727;42.624;23.406;2023-05-10T11:33:14;10.50;;;9.40;;
3427;SDS011;1727;42.624;23.406;2023-05-10T11:35:42;8.47;;;7.67;;
3427;SDS011;1727;42.624;23.406;2023-05-10T11:38:09;10.20;;;8.60;;
3427;SDS011;1727;42.624;23.406;2023-05-10T11:40:37;23.33;;;9.85;;
3427;SDS011;1727;42.624;23.406;2023-05-10T11:43:04;10.47;;;9.23;;
3427;SDS011;1727;42.624;23.406;2023-05-10T11:45:33;9.53;;;7.97;;
3427;SDS011;1727;42.624;23.406;2023-05-10T11:48:00;10.83;;;8.67;;
3427;SDS011;1727;42.624;23.406;2023-05-10T11:50:29;8.63;;;7.83;;
3427;SDS011;1727;42.624;23.406;2023-05-10T11:52:58;11.77;;;9.30;;
3427;SDS011;1727;42.624;23.406;2023-05-10T11:55:28;11.60;;;9.43;;
3427;SDS011;1727;42.624;23.406;2023-05-10T11:58:01;10.53;;;9.43;;
3427;SDS011;1727;42.624;23.406;2023-05-10T12:00:28;11.30;;;10.13;;
3427;SDS011;1727;42.624;23.406;2023-05-10T12:02:57;14.73;;;10.03;;
3427;SDS011;1727;42.624;23.406;2023-05-10T12:05:24;11.57;;;10.37;;
3427;SDS011;1727;42.624;23.406;2023-05-10T12:07:52;13.43;;;9.47;;
3427;SDS011;1727;42.624;23.406;2023-05-10T12:10:24;13.50;;;10.43;;
3427;SDS011;1727;42.624;23.406;2023-05-10T12:12:52;14.60;;;10.57;;
3427;SDS011;1727;42.624;23.406;2023-05-10T12:15:20;11.83;;;9.40;;
3427;SDS011;1727;42.624;23.406;2023-05-10T12:17:47;11.50;;;8.77;;
3427;SDS011;1727;42.624;23.406;2023-05-10T12:20:17;9.50;;;8.17;;
3427;SDS011;1727;42.624;23.406;2023-05-10T12:22:46;10.70;;;9.60;;
3427;SDS011;1727;42.624;23.406;2023-05-10T12:25:13;12.30;;;8.93;;
3427;SDS011;1727;42.624;23.406;2023-05-10T12:27:41;11.50;;;10.00;;
3427;SDS011;1727;42.624;23.406;2023-05-10T12:30:18;20.23;;;10.03;;
3427;SDS011;1727;42.624;23.406;2023-05-10T12:32:45;11.20;;;9.77;;
3427;SDS011;1727;42.624;23.406;2023-05-10T12:35:12;12.00;;;9.30;;
3427;SDS011;1727;42.624;23.406;2023-05-10T12:37:40;10.87;;;9.40;;
3427;SDS011;1727;42.624;23.406;2023-05-10T12:40:08;12.33;;;8.80;;
3427;SDS011;1727;42.624;23.406;2023-05-10T12:42:37;9.17;;;8.30;;
3427;SDS011;1727;42.624;23.406;2023-05-10T12:45:05;10.80;;;9.10;;
3427;SDS011;1727;42.624;23.406;2023-05-10T12:47:33;16.90;;;8.83;;
3427;SDS011;1727;42.624;23.406;2023-05-10T12:50:01;23.00;;;8.60;;
3427;SDS011;1727;42.624;23.406;2023-05-10T12:52:29;19.50;;;11.70;;
3427;SDS011;1727;42.624;23.406;2023-05-10T12:54:58;12.93;;;10.27;;
3427;SDS011;1727;42.624;23.406;2023-05-10T12:57:25;9.20;;;8.23;;
3427;SDS011;1727;42.624;23.406;2023-05-10T12:59:52;11.70;;;8.87;;
3427;SDS011;1727;42.624;23.406;2023-05-10T13:02:18;10.27;;;7.83;;
3427;SDS011;1727;42.624;23.406;2023-05-10T13:04:46;9.63;;;8.07;;
3427;SDS011;1727;42.624;23.406;2023-05-10T13:07:13;12.50;;;10.13;;
3427;SDS011;1727;42.624;23.406;2023-05-10T13:09:40;12.03;;;9.00;;
3427;SDS011;1727;42.624;23.406;2023-05-10T13:12:08;16.70;;;9.03;;
3427;SDS011;1727;42.624;23.406;2023-05-10T13:14:35;8.90;;;8.07;;
3427;SDS011;1727;42.624;23.406;2023-05-10T13:17:01;8.10;;;7.30;;
3427;SDS011;1727;42.624;23.406;2023-05-10T13:19:28;19.47;;;10.73;;
3427;SDS011;1727;42.624;23.406;2023-05-10T13:21:55;14.00;;;10.30;;
3427;SDS011;1727;42.624;23.406;2023-05-10T13:24:24;14.30;;;9.43;;
3427;SDS011;1727;42.624;23.406;2023-05-10T13:26:50;10.27;;;8.00;;
3427;SDS011;1727;42.624;23.406;2023-05-10T13:29:18;12.97;;;11.77;;
3427;SDS011;1727;42.624;23.406;2023-05-10T13:31:47;14.70;;;9.87;;
3427;SDS011;1727;42.624;23.406;2023-05-10T13:34:14;11.90;;;9.23;;
3427;SDS011;1727;42.624;23.406;2023-05-10T13:36:41;8.73;;;7.90;;
3427;SDS011;1727;42.624;23.406;2023-05-10T13:39:08;9.30;;;8.40;;
3427;SDS011;1727;42.624;23.406;2023-05-10T13:41:35;10.87;;;9.40;;
3427;SDS011;1727;42.624;23.406;2023-05-10T13:44:01;9.80;;;8.90;;
3427;SDS011;1727;42.624;23.406;2023-05-10T13:46:30;11.83;;;10.10;;
3427;SDS011;1727;42.624;23.406;2023-05-10T13:48:56;17.33;;;8.83;;
3427;SDS011;1727;42.624;23.406;2023-05-10T13:51:23;12.30;;;9.67;;
3427;SDS011;1727;42.624;23.406;2023-05-10T13:53:50;12.40;;;8.53;;
3427;SDS011;1727;42.624;23.406;2023-05-10T13:59:05;9.63;;;8.67;;
3427;SDS011;1727;42.624;23.406;2023-05-10T14:01:34;8.10;;;7.43;;
3427;SDS011;1727;42.624;23.406;2023-05-10T14:04:01;10.33;;;8.07;;
3427;SDS011;1727;42.624;23.406;2023-05-10T14:06:28;15.77;;;9.73;;
3427;SDS011;1727;42.624;23.406;2023-05-10T14:08:55;10.70;;;8.40;;
3427;SDS011;1727;42.624;23.406;2023-05-10T14:11:22;10.33;;;9.23;;
3427;SDS011;1727;42.624;23.406;2023-05-10T14:13:49;8.00;;;7.00;;
3427;SDS011;1727;42.624;23.406;2023-05-10T14:16:16;9.27;;;8.23;;
3427;SDS011;1727;42.624;23.406;2023-05-10T14:18:44;9.63;;;8.63;;
3427;SDS011;1727;42.624;23.406;2023-05-10T14:21:11;13.80;;;8.73;;
3427;SDS011;1727;42.624;23.406;2023-05-10T14:23:38;11.60;;;9.10;;
3427;SDS011;1727;42.624;23.406;2023-05-10T14:26:05;11.10;;;9.40;;
3427;SDS011;1727;42.624;23.406;2023-05-10T14:28:32;12.20;;;9.17;;
3427;SDS011;1727;42.624;23.406;2023-05-10T14:30:58;12.47;;;9.97;;
3427;SDS011;1727;42.624;23.406;2023-05-10T14:33:25;12.40;;;11.20;;
3427;SDS011;1727;42.624;23.406;2023-05-10T14:35:53;14.70;;;10.20;;
3427;SDS011;1727;42.624;23.406;2023-05-10T14:38:21;13.10;;;9.07;;
3427;SDS011;1727;42.624;23.406;2023-05-10T14:40:48;10.63;;;8.60;;
3427;SDS011;1727;42.624;23.406;2023-05-10T14:43:15;13.87;;;9.40;;
3427;SDS011;1727;42.624;23.406;2023-05-10T14:45:41;18.10;;;13.03;;
3427;SDS011;1727;42.624;23.406;2023-05-10T14:48:08;13.00;;;9.80;;
3427;SDS011;1727;42.624;23.406;2023-05-10T14:50:40;12.37;;;9.00;;
3427;SDS011;1727;42.624;23.406;2023-05-10T14:56:06;11.40;;;9.67;;
3427;SDS011;1727;42.624;23.406;2023-05-10T14:58:33;15.80;;;11.33;;
3427;SDS011;1727;42.624;23.406;2023-05-10T15:00:59;11.47;;;9.43;;
3427;SDS011;1727;42.624;23.406;2023-05-10T15:03:26;11.47;;;9.07;;
3427;SDS011;1727;42.624;23.406;2023-05-10T15:05:53;9.27;;;8.30;;
3427;SDS011;1727;42.624;23.406;2023-05-10T15:08:21;15.73;;;11.00;;
3427;SDS011;1727;42.624;23.406;2023-05-10T15:10:50;26.67;;;12.90;;
3427;SDS011;1727;42.624;23.406;2023-05-10T15:13:17;12.70;;;10.07;;
3427;SDS011;1727;42.624;23.406;2023-05-10T15:15:44;12.57;;;9.77;;